Time;durP1;ratioP1;P1;durP2;ratioP2;P2;SDS_P1;SDS_P2;PMS_P1;PMS_P2;Temp;Humidity;BMP_temperature;BMP_pressure;BME280_temperature;BME280_humidity;BME280_pressure;Samples;Min_cycle;Max_cycle;Signal;HPM_P1;HPM_P2
2022/11/24 00:01:09;;;;;;;9.27;4.50;;;;;;;;;;6269865;22;20020;-79
2022/11/24 00:03:35;;;;;;;10.15;4.85;;;;;;;;;;6270169;22;20055;-79
2022/11/24 00:06:04;;;;;;;11.00;4.20;;;;;;;;;;6269948;22;20011;-80
2022/11/24 00:08:30;;;;;;;9.02;4.57;;;;;;;;;;6270086;22;20372;-80
2022/11/24 00:10:55;;;;;;;8.63;4.07;;;;;;;;;;6269525;22;20012;-79
2022/11/24 00:13:21;;;;;;;8.73;4.18;;;;;;;;;;6269979;22;19996;-80
2022/11/24 00:15:46;;;;;;;9.32;4.15;;;;;;;;;;6218645;23;20034;-80
2022/11/24 00:18:11;;;;;;;12.57;5.05;;;;;;;;;;6244185;23;20054;-80
2022/11/24 00:20:37;;;;;;;7.90;4.53;;;;;;;;;;6269634;22;20344;-80
2022/11/24 00:23:03;;;;;;;17.70;7.55;;;;;;;;;;6244041;23;20011;-81
2022/11/24 00:25:28;;;;;;;10.77;4.68;;;;;;;;;;6269368;22;20091;-79
2022/11/24 00:27:54;;;;;;;10.50;4.18;;;;;;;;;;6245875;22;20004;-80
2022/11/24 00:30:19;;;;;;;7.38;4.25;;;;;;;;;;6244205;23;20474;-79
2022/11/24 00:32:45;;;;;;;9.73;4.35;;;;;;;;;;6243652;23;20004;-79
2022/11/24 00:35:10;;;;;;;10.50;5.00;;;;;;;;;;6270145;22;20038;-78
2022/11/24 00:37:36;;;;;;;12.48;3.70;;;;;;;;;;6269423;22;20000;-79
2022/11/24 00:40:01;;;;;;;8.75;3.80;;;;;;;;;;6269948;22;20032;-80
2022/11/24 00:42:27;;;;;;;8.55;3.78;;;;;;;;;;6243667;23;20000;-79
2022/11/24 00:44:52;;;;;;;11.95;4.18;;;;;;;;;;6218866;23;20076;-79
2022/11/24 00:47:18;;;;;;;11.05;4.43;;;;;;;;;;6269636;22;20432;-81
2022/11/24 00:49:43;;;;;;;9.68;3.25;;;;;;;;;;6243801;23;20495;-79
2022/11/24 00:52:08;;;;;;;11.10;3.70;;;;;;;;;;6269437;22;20089;-80
2022/11/24 00:54:34;;;;;;;5.53;3.13;;;;;;;;;;6269814;22;20428;-80
2022/11/24 00:56:59;;;;;;;9.90;3.60;;;;;;;;;;6244111;23;20042;-79
2022/11/24 00:59:25;;;;;;;10.40;3.60;;;;;;;;;;6269399;22;20024;-80
2022/11/24 01:01:50;;;;;;;6.82;3.28;;;;;;;;;;6269232;22;20086;-79
2022/11/24 01:04:16;;;;;;;10.80;3.10;;;;;;;;;;6269161;22;20016;-80
2022/11/24 01:06:42;;;;;;;6.40;3.17;;;;;;;;;;6269169;22;20004;-79
2022/11/24 01:09:08;;;;;;;10.25;3.28;;;;;;;;;;6269183;22;20023;-79
2022/11/24 01:14:18;;;;;;;10.13;3.17;;;;;;;;;;6244873;22;19907;-79
2022/11/24 01:16:43;;;;;;;7.72;3.13;;;;;;;;;;6268898;22;20003;-80
2022/11/24 01:19:09;;;;;;;10.13;6.10;;;;;;;;;;6269381;22;20015;-80
2022/11/24 01:21:34;;;;;;;6.57;3.47;;;;;;;;;;6243355;23;20004;-79
2022/11/24 01:24:00;;;;;;;7.15;3.50;;;;;;;;;;6269380;22;20066;-79
2022/11/24 01:26:25;;;;;;;5.25;3.08;;;;;;;;;;6269206;22;20432;-79
2022/11/24 01:28:54;;;;;;;7.15;3.78;;;;;;;;;;6269472;22;20065;-78
2022/11/24 01:31:20;;;;;;;5.85;3.33;;;;;;;;;;6268430;22;20121;-78
2022/11/24 01:33:45;;;;;;;5.78;3.40;;;;;;;;;;6269095;22;20404;-78
2022/11/24 01:36:11;;;;;;;6.63;3.35;;;;;;;;;;6269102;22;20000;-79
2022/11/24 01:38:36;;;;;;;5.78;3.50;;;;;;;;;;6268827;22;20008;-79
2022/11/24 01:41:06;;;;;;;5.45;3.53;;;;;;;;;;6269379;22;20051;-78
2022/11/24 01:43:31;;;;;;;7.80;3.90;;;;;;;;;;6269115;22;20008;-78
2022/11/24 01:45:57;;;;;;;6.20;3.55;;;;;;;;;;6268722;22;20374;-78
2022/11/24 01:48:24;;;;;;;8.25;3.95;;;;;;;;;;6268801;22;20004;-78
2022/11/24 01:50:52;;;;;;;205.07;8.70;;;;;;;;;;6243210;23;20003;-78
2022/11/24 01:53:18;;;;;;;124.10;9.02;;;;;;;;;;6243327;23;20106;-78
2022/11/24 01:55:43;;;;;;;294.38;12.05;;;;;;;;;;6268837;22;20491;-79
2022/11/24 01:58:13;;;;;;;144.13;11.15;;;;;;;;;;6268532;22;20432;-79
2022/11/24 02:00:39;;;;;;;234.57;10.40;;;;;;;;;;6268687;22;20027;-79
2022/11/24 02:03:05;;;;;;;211.40;9.75;;;;;;;;;;6242997;23;20107;-79
2022/11/24 02:05:37;;;;;;;91.85;8.23;;;;;;;;;;6243183;23;20038;-79
2022/11/24 02:08:02;;;;;;;322.75;14.75;;;;;;;;;;6218022;23;20448;-79
2022/11/24 02:10:28;;;;;;;97.20;7.40;;;;;;;;;;6243233;23;20007;-79
2022/11/24 02:12:53;;;;;;;32.80;5.15;;;;;;;;;;6268747;22;20217;-79
2022/11/24 02:15:19;;;;;;;19.70;5.40;;;;;;;;;;6268591;22;20000;-80
2022/11/24 02:17:44;;;;;;;183.95;9.52;;;;;;;;;;6244677;22;20443;-79
2022/11/24 02:20:10;;;;;;;45.63;6.82;;;;;;;;;;6268699;22;19996;-79
2022/11/24 02:22:36;;;;;;;90.43;8.38;;;;;;;;;;6268668;22;20012;-79
2022/11/24 02:25:19;;;;;;;45.95;6.18;;;;;;;;;;6243425;23;20000;-80
2022/11/24 02:27:45;;;;;;;62.85;6.65;;;;;;;;;;6244797;22;20035;-79
2022/11/24 02:30:10;;;;;;;317.85;14.02;;;;;;;;;;6268775;22;20000;-79
2022/11/24 02:32:37;;;;;;;24.45;5.25;;;;;;;;;;6242741;22;20067;-79
2022/11/24 02:35:03;;;;;;;34.15;6.95;;;;;;;;;;6268500;22;20000;-79
2022/11/24 02:37:29;;;;;;;;;;;;;;;;;;6218396;23;20436;-79
2022/11/24 02:39:54;;;;;;;60.13;6.90;;;;;;;;;;6242933;23;19910;-79
2022/11/24 02:42:20;;;;;;;16.30;5.53;;;;;;;;;;6269524;22;20098;-80
2022/11/24 02:44:47;;;;;;;10.15;5.70;;;;;;;;;;6244906;23;20007;-79
2022/11/24 02:47:13;;;;;;;8.75;4.57;;;;;;;;;;6246676;22;20423;-79
2022/11/24 02:49:38;;;;;;;25.77;5.60;;;;;;;;;;6270307;22;20007;-79
2022/11/24 02:52:04;;;;;;;24.90;4.97;;;;;;;;;;6245409;23;20020;-79
2022/11/24 02:54:29;;;;;;;10.57;5.35;;;;;;;;;;6270863;22;20022;-79
2022/11/24 02:56:55;;;;;;;16.00;4.80;;;;;;;;;;6245059;22;20011;-79
2022/11/24 02:59:20;;;;;;;10.32;5.28;;;;;;;;;;6270216;22;20027;-79
2022/11/24 03:01:46;;;;;;;9.52;4.63;;;;;;;;;;6270706;22;20012;-79
2022/11/24 03:04:11;;;;;;;13.00;5.22;;;;;;;;;;6244986;23;20000;-79
2022/11/24 03:06:37;;;;;;;13.68;5.32;;;;;;;;;;6244916;23;20016;-80
2022/11/24 03:09:03;;;;;;;9.65;4.30;;;;;;;;;;6244907;23;20007;-79
2022/11/24 03:11:28;;;;;;;13.90;5.85;;;;;;;;;;6270503;22;20095;-80
2022/11/24 03:13:54;;;;;;;14.10;4.32;;;;;;;;;;6270171;22;20000;-79
2022/11/24 03:16:19;;;;;;;11.30;4.93;;;;;;;;;;6244592;23;20012;-79
2022/11/24 03:18:47;;;;;;;9.77;4.55;;;;;;;;;;6270504;22;19996;-78
2022/11/24 03:21:12;;;;;;;36.08;5.38;;;;;;;;;;6244647;23;20012;-79
2022/11/24 03:23:38;;;;;;;9.90;4.93;;;;;;;;;;6270124;22;20027;-78
2022/11/24 03:26:10;;;;;;;12.85;5.70;;;;;;;;;;6244952;23;20016;-80
2022/11/24 03:28:36;;;;;;;10.80;5.13;;;;;;;;;;6270066;22;20011;-80
2022/11/24 03:31:01;;;;;;;9.63;5.03;;;;;;;;;;6244251;23;19996;-80
2022/11/24 03:33:27;;;;;;;7.15;4.63;;;;;;;;;;6270012;22;20012;-79
2022/11/24 03:35:52;;;;;;;7.03;4.18;;;;;;;;;;6219161;23;20057;-78
2022/11/24 03:38:18;;;;;;;5.45;3.80;;;;;;;;;;6270030;22;20012;-79
2022/11/24 03:40:43;;;;;;;8.02;4.47;;;;;;;;;;6245974;22;20007;-78
2022/11/24 03:43:09;;;;;;;8.52;4.32;;;;;;;;;;6270271;22;20479;-78
2022/11/24 03:45:34;;;;;;;5.50;3.40;;;;;;;;;;6244756;22;20016;-80
2022/11/24 03:48:00;;;;;;;6.97;4.18;;;;;;;;;;6244714;22;20011;-79
2022/11/24 03:50:26;;;;;;;6.97;4.47;;;;;;;;;;6270030;22;20004;-80
2022/11/24 03:52:51;;;;;;;6.28;4.10;;;;;;;;;;6244137;23;20023;-79
2022/11/24 03:55:17;;;;;;;7.80;3.92;;;;;;;;;;6244075;23;20003;-79
2022/11/24 03:57:42;;;;;;;9.07;4.10;;;;;;;;;;6244466;22;20008;-79
2022/11/24 04:00:08;;;;;;;8.88;3.83;;;;;;;;;;6244173;23;20349;-80
2022/11/24 04:02:34;;;;;;;5.35;3.47;;;;;;;;;;6270010;22;20020;-78
2022/11/24 04:04:59;;;;;;;8.70;3.70;;;;;;;;;;6244063;23;20383;-80
2022/11/24 04:07:25;;;;;;;9.25;5.20;;;;;;;;;;6244159;23;20019;-79
2022/11/24 04:09:50;;;;;;;9.93;4.50;;;;;;;;;;6244476;23;20000;-79
2022/11/24 04:15:00;;;;;;;11.88;5.85;;;;;;;;;;6245155;23;20015;-79
2022/11/24 04:17:26;;;;;;;11.93;5.60;;;;;;;;;;6270237;22;20000;-79
2022/11/24 04:19:52;;;;;;;11.43;5.82;;;;;;;;;;6269259;22;20008;-79
2022/11/24 04:22:17;;;;;;;8.68;5.05;;;;;;;;;;6244102;23;20007;-79
2022/11/24 04:24:43;;;;;;;9.63;5.20;;;;;;;;;;6269439;22;20061;-79
2022/11/24 04:27:08;;;;;;;10.23;5.03;;;;;;;;;;6269891;22;20478;-79
2022/11/24 04:29:33;;;;;;;10.10;5.00;;;;;;;;;;6245553;22;20435;-79
2022/11/24 04:31:59;;;;;;;10.93;4.95;;;;;;;;;;6243467;23;20475;-79
2022/11/24 04:34:24;;;;;;;10.13;5.25;;;;;;;;;;6245113;22;20012;-79
2022/11/24 04:36:50;;;;;;;10.50;5.38;;;;;;;;;;6243842;23;19995;-78
2022/11/24 04:39:15;;;;;;;9.35;5.50;;;;;;;;;;6268802;22;20397;-80
2022/11/24 04:41:41;;;;;;;9.90;6.05;;;;;;;;;;6243634;23;20083;-79
2022/11/24 04:44:06;;;;;;;10.55;6.18;;;;;;;;;;6267066;22;20019;-80
2022/11/24 04:46:32;;;;;;;14.18;6.43;;;;;;;;;;6268754;22;20003;-79
2022/11/24 04:48:57;;;;;;;14.25;6.63;;;;;;;;;;6244497;23;20043;-79
2022/11/24 04:51:23;;;;;;;13.70;6.80;;;;;;;;;;6268753;22;20034;-80
2022/11/24 04:53:48;;;;;;;12.75;6.80;;;;;;;;;;6243360;23;20440;-79
2022/11/24 04:56:14;;;;;;;11.45;6.60;;;;;;;;;;6242492;23;20004;-78
2022/11/24 04:58:39;;;;;;;8.65;5.55;;;;;;;;;;6268683;22;20027;-79
2022/11/24 05:01:06;;;;;;;13.07;5.97;;;;;;;;;;6244058;23;20012;-78
2022/11/24 05:03:32;;;;;;;11.00;5.22;;;;;;;;;;6244153;23;20058;-79
2022/11/24 05:05:57;;;;;;;8.57;4.97;;;;;;;;;;6267956;22;19996;-79
2022/11/24 05:08:23;;;;;;;9.45;4.70;;;;;;;;;;6242984;23;20051;-79
2022/11/24 05:10:48;;;;;;;7.95;4.72;;;;;;;;;;6244834;22;20003;-79
2022/11/24 05:13:14;;;;;;;8.70;6.20;;;;;;;;;;6268395;22;20020;-80
2022/11/24 05:15:39;;;;;;;11.68;5.93;;;;;;;;;;6268515;22;20028;-79
2022/11/24 05:18:05;;;;;;;19.80;11.85;;;;;;;;;;6268440;22;20008;-78
2022/11/24 05:20:31;;;;;;;8.70;5.10;;;;;;;;;;6269610;22;20022;-78
2022/11/24 05:23:00;;;;;;;7.82;5.10;;;;;;;;;;6242775;23;20012;-78
2022/11/24 05:25:25;;;;;;;7.35;4.88;;;;;;;;;;6268535;22;20427;-78
2022/11/24 05:27:51;;;;;;;8.63;5.25;;;;;;;;;;6268840;22;20061;-78
2022/11/24 05:30:16;;;;;;;7.65;5.00;;;;;;;;;;6268838;22;20340;-77
2022/11/24 05:32:42;;;;;;;9.00;5.25;;;;;;;;;;6268712;22;20008;-78
2022/11/24 05:35:08;;;;;;;8.88;5.40;;;;;;;;;;6244689;22;20006;-80
2022/11/24 05:37:34;;;;;;;8.88;5.70;;;;;;;;;;6268763;22;20380;-80
2022/11/24 05:39:59;;;;;;;9.15;5.70;;;;;;;;;;6243209;23;20079;-80
2022/11/24 05:42:40;;;;;;;6.13;4.25;;;;;;;;;;6268592;22;20020;-81
2022/11/24 05:45:15;;;;;;;8.35;4.72;;;;;;;;;;6265619;22;20047;-78
2022/11/24 05:47:41;;;;;;;6.07;3.88;;;;;;;;;;6242686;23;20012;-79
2022/11/24 05:50:07;;;;;;;7.55;4.13;;;;;;;;;;6242044;23;20004;-79
2022/11/24 05:52:32;;;;;;;9.65;4.22;;;;;;;;;;6241443;23;20012;-80
2022/11/24 05:54:58;;;;;;;21.10;5.63;;;;;;;;;;6267174;22;20050;-78
2022/11/24 05:57:23;;;;;;;22.63;5.40;;;;;;;;;;6243427;22;20036;-80
2022/11/24 05:59:49;;;;;;;8.88;4.38;;;;;;;;;;6267105;22;20445;-80
2022/11/24 06:02:15;;;;;;;9.70;5.18;;;;;;;;;;6267645;22;20138;-79
2022/11/24 06:04:53;;;;;;;10.13;5.97;;;;;;;;;;5078912;27;20479;-79
2022/11/24 06:07:19;;;;;;;8.85;5.78;;;;;;;;;;5062289;28;20144;-79
2022/11/24 06:09:44;;;;;;;13.02;6.10;;;;;;;;;;5042811;28;20029;-80
2022/11/24 06:12:10;;;;;;;12.80;7.32;;;;;;;;;;5066789;28;20434;-80
2022/11/24 06:14:36;;;;;;;9.77;5.70;;;;;;;;;;5049872;28;20028;-80
2022/11/24 06:17:01;;;;;;;10.95;6.00;;;;;;;;;;5066683;28;20058;-80
2022/11/24 06:19:27;;;;;;;14.55;6.38;;;;;;;;;;5067032;28;20041;-79
2022/11/24 06:21:52;;;;;;;10.13;6.72;;;;;;;;;;5066680;28;20044;-81
2022/11/24 06:24:18;;;;;;;8.57;4.78;;;;;;;;;;5067908;28;20111;-79
2022/11/24 06:26:43;;;;;;;9.25;4.72;;;;;;;;;;5066826;28;20070;-80
2022/11/24 06:29:09;;;;;;;5.72;3.63;;;;;;;;;;5066432;28;20037;-80
2022/11/24 06:31:34;;;;;;;7.18;4.55;;;;;;;;;;5067614;28;20024;-79
2022/11/24 06:34:00;;;;;;;6.00;4.43;;;;;;;;;;5049941;28;20488;-80
2022/11/24 06:36:25;;;;;;;6.65;4.72;;;;;;;;;;5033229;28;20094;-79
2022/11/24 06:38:51;;;;;;;7.07;4.63;;;;;;;;;;5049189;28;20041;-80
2022/11/24 06:41:17;;;;;;;21.70;14.13;;;;;;;;;;5066350;28;20052;-80
2022/11/24 06:43:42;;;;;;;9.68;6.78;;;;;;;;;;5049538;28;20539;-79
2022/11/24 06:46:08;;;;;;;8.95;5.63;;;;;;;;;;5066120;28;20032;-79
2022/11/24 06:48:33;;;;;;;8.13;5.53;;;;;;;;;;5065415;28;20036;-80
2022/11/24 06:50:59;;;;;;;8.70;5.47;;;;;;;;;;5066110;28;20131;-79
2022/11/24 06:53:24;;;;;;;9.00;5.95;;;;;;;;;;5066204;28;20067;-79
2022/11/24 06:55:50;;;;;;;8.60;5.57;;;;;;;;;;5066056;28;20549;-79
2022/11/24 06:58:15;;;;;;;8.90;5.90;;;;;;;;;;5049690;28;20090;-79
2022/11/24 07:00:41;;;;;;;8.32;5.47;;;;;;;;;;5066154;28;20035;-81
2022/11/24 07:03:06;;;;;;;8.38;5.55;;;;;;;;;;5065741;28;20057;-79
2022/11/24 07:05:31;;;;;;;8.70;6.22;;;;;;;;;;5066809;28;20036;-79
2022/11/24 07:08:00;;;;;;;8.38;5.72;;;;;;;;;;5064820;28;20037;-79
2022/11/24 07:10:26;;;;;;;7.78;5.75;;;;;;;;;;5065525;28;20087;-79
2022/11/24 07:12:51;;;;;;;8.82;5.75;;;;;;;;;;5046045;28;20563;-79
2022/11/24 07:15:16;;;;;;;7.85;5.55;;;;;;;;;;5072133;28;20120;-79
2022/11/24 07:17:42;;;;;;;8.85;5.97;;;;;;;;;;5052832;28;20059;-79
2022/11/24 07:20:08;;;;;;;9.95;7.72;;;;;;;;;;5052620;28;20515;-80
2022/11/24 07:22:34;;;;;;;8.52;5.60;;;;;;;;;;5032847;28;20041;-79
2022/11/24 07:24:59;;;;;;;8.80;5.93;;;;;;;;;;5051516;28;20028;-79
2022/11/24 07:27:29;;;;;;;9.20;5.70;;;;;;;;;;5050537;28;20055;-79
2022/11/24 07:29:54;;;;;;;11.27;6.57;;;;;;;;;;5035134;28;20033;-81
2022/11/24 07:32:19;;;;;;;9.80;6.25;;;;;;;;;;5032664;28;20048;-79
2022/11/24 07:34:45;;;;;;;8.63;6.05;;;;;;;;;;5051196;28;20136;-81
2022/11/24 07:37:10;;;;;;;10.43;6.45;;;;;;;;;;5054005;28;20032;-78
2022/11/24 07:39:36;;;;;;;10.48;6.88;;;;;;;;;;5053695;28;20040;-81
2022/11/24 07:42:03;;;;;;;10.40;7.15;;;;;;;;;;5035530;28;20396;-79
2022/11/24 07:44:29;;;;;;;10.30;6.47;;;;;;;;;;5053125;28;20033;-80
2022/11/24 07:46:54;;;;;;;20.30;13.38;;;;;;;;;;5052104;28;20032;-80
2022/11/24 07:49:20;;;;;;;10.60;8.38;;;;;;;;;;5052406;28;20365;-80
2022/11/24 07:51:45;;;;;;;11.15;8.00;;;;;;;;;;5051813;28;20036;-79
2022/11/24 07:54:11;;;;;;;11.60;8.07;;;;;;;;;;5032613;28;20040;-80
2022/11/24 07:56:36;;;;;;;10.70;7.45;;;;;;;;;;5035336;28;20037;-80
2022/11/24 07:59:02;;;;;;;9.85;7.22;;;;;;;;;;5052694;28;20024;-80
2022/11/24 08:01:27;;;;;;;12.00;7.30;;;;;;;;;;5053139;28;20032;-79
2022/11/24 08:03:53;;;;;;;10.98;7.30;;;;;;;;;;5052735;28;20057;-80
2022/11/24 08:06:18;;;;;;;9.13;6.97;;;;;;;;;;5051481;28;20041;-80
2022/11/24 08:08:44;;;;;;;9.02;6.95;;;;;;;;;;5051617;28;20112;-79
2022/11/24 08:11:10;;;;;;;9.60;7.38;;;;;;;;;;5052956;28;20404;-80
2022/11/24 08:13:35;;;;;;;10.00;7.30;;;;;;;;;;5051353;28;20029;-80
2022/11/24 08:16:05;;;;;;;11.18;7.88;;;;;;;;;;5035346;28;20102;-80
2022/11/24 08:18:30;;;;;;;9.68;7.30;;;;;;;;;;5052623;28;20123;-80
2022/11/24 08:20:56;;;;;;;10.45;7.72;;;;;;;;;;5053009;28;20108;-80
2022/11/24 08:23:22;;;;;;;;;;;;;;;;;;5052039;28;20047;-79
2022/11/24 08:25:47;;;;;;;10.18;7.18;;;;;;;;;;5051198;28;19987;-79
2022/11/24 08:28:13;;;;;;;13.32;7.90;;;;;;;;;;5066992;28;20488;-80
2022/11/24 08:30:38;;;;;;;10.85;7.90;;;;;;;;;;5051536;28;20025;-78
2022/11/24 08:33:03;;;;;;;10.95;7.55;;;;;;;;;;5034622;28;20029;-79
2022/11/24 08:35:29;;;;;;;12.05;8.60;;;;;;;;;;5034604;28;20033;-80
2022/11/24 08:37:54;;;;;;;12.05;8.80;;;;;;;;;;5052425;28;20542;-79
2022/11/24 08:40:20;;;;;;;15.85;10.15;;;;;;;;;;5052614;28;20389;-80
2022/11/24 08:42:45;;;;;;;16.25;10.32;;;;;;;;;;5050516;28;20043;-81
2022/11/24 08:45:11;;;;;;;12.93;9.68;;;;;;;;;;5034662;28;20457;-81
2022/11/24 08:47:37;;;;;;;11.95;9.45;;;;;;;;;;5052333;28;20053;-80
2022/11/24 08:50:04;;;;;;;12.10;9.23;;;;;;;;;;5034418;28;20120;-79
2022/11/24 08:52:29;;;;;;;13.48;9.73;;;;;;;;;;5031928;28;20017;-79
2022/11/24 08:54:55;;;;;;;12.48;8.68;;;;;;;;;;5034345;28;20463;-82
2022/11/24 08:57:20;;;;;;;11.38;8.52;;;;;;;;;;5050681;28;20037;-81
2022/11/24 08:59:46;;;;;;;11.60;8.57;;;;;;;;;;5014699;28;20037;-79
2022/11/24 09:02:11;;;;;;;10.70;7.85;;;;;;;;;;5048076;28;20044;-81
2022/11/24 09:04:37;;;;;;;16.65;12.77;;;;;;;;;;5031266;28;20527;-79
2022/11/24 09:07:03;;;;;;;11.02;8.60;;;;;;;;;;5046893;28;20029;-80
2022/11/24 09:09:28;;;;;;;10.75;8.25;;;;;;;;;;5034077;28;20051;-80
2022/11/24 09:11:53;;;;;;;10.40;8.18;;;;;;;;;;5050255;28;20016;-80
2022/11/24 09:14:19;;;;;;;9.88;7.75;;;;;;;;;;5030528;28;20547;-79
2022/11/24 09:16:44;;;;;;;10.32;8.30;;;;;;;;;;5046703;28;20078;-80
2022/11/24 09:19:10;;;;;;;11.60;8.05;;;;;;;;;;5030258;28;20041;-79
2022/11/24 09:21:37;;;;;;;13.55;10.75;;;;;;;;;;5046256;28;20096;-80
2022/11/24 09:24:03;;;;;;;10.13;8.00;;;;;;;;;;5051838;28;20075;-79
2022/11/24 09:26:29;;;;;;;10.02;7.65;;;;;;;;;;5050508;28;20449;-81
2022/11/24 09:28:55;;;;;;;11.40;8.18;;;;;;;;;;5050563;28;20064;-80
2022/11/24 09:31:22;;;;;;;9.57;7.65;;;;;;;;;;5033247;28;20055;-80
2022/11/24 09:33:47;;;;;;;11.05;8.85;;;;;;;;;;5051000;28;20037;-81
2022/11/24 09:36:12;;;;;;;10.68;9.48;;;;;;;;;;5051503;28;20112;-81
2022/11/24 09:38:38;;;;;;;10.82;8.60;;;;;;;;;;5033523;28;20079;-80
2022/11/24 09:41:16;;;;;;;11.75;8.90;;;;;;;;;;5050239;28;20032;-79
2022/11/24 09:44:03;;;;;;;12.68;9.52;;;;;;;;;;5050170;28;20408;-78
2022/11/24 09:46:28;;;;;;;14.20;10.27;;;;;;;;;;5041252;28;20060;-79
2022/11/24 09:48:54;;;;;;;13.07;9.82;;;;;;;;;;5044636;28;20029;-80
2022/11/24 09:51:21;;;;;;;;;;;;;;;;;;5024859;28;20039;-80
2022/11/24 09:53:52;;;;;;;15.80;10.48;;;;;;;;;;5045743;28;19951;-80
2022/11/24 09:56:22;;;;;;;14.20;10.25;;;;;;;;;;5051277;28;20036;-80
2022/11/24 09:58:49;;;;;;;14.38;11.15;;;;;;;;;;5033049;28;20029;-80
2022/11/24 10:01:18;;;;;;;15.75;11.95;;;;;;;;;;5049992;28;20083;-79
2022/11/24 10:03:45;;;;;;;16.17;12.27;;;;;;;;;;5032975;28;20049;-80
2022/11/24 10:06:16;;;;;;;16.85;11.70;;;;;;;;;;5046752;28;20064;-79
2022/11/24 10:08:42;;;;;;;17.45;12.38;;;;;;;;;;5049811;28;20400;-79
2022/11/24 10:11:11;;;;;;;16.88;12.25;;;;;;;;;;5050920;28;20029;-79
2022/11/24 10:13:57;;;;;;;18.27;12.65;;;;;;;;;;5049989;28;20501;-79
2022/11/24 10:16:38;;;;;;;20.90;13.98;;;;;;;;;;5039578;28;20080;-79
2022/11/24 10:19:22;;;;;;;19.85;13.52;;;;;;;;;;5039965;28;20045;-80
2022/11/24 10:22:07;;;;;;;18.92;13.55;;;;;;;;;;5050963;28;20039;-80
2022/11/24 10:24:49;;;;;;;19.05;13.50;;;;;;;;;;5050823;28;20045;-80
2022/11/24 10:27:19;;;;;;;18.65;13.20;;;;;;;;;;5039584;28;20037;-80
2022/11/24 10:29:44;;;;;;;19.65;13.43;;;;;;;;;;5031561;28;20025;-81
2022/11/24 10:32:14;;;;;;;18.70;12.85;;;;;;;;;;5049825;28;20124;-79
2022/11/24 10:34:40;;;;;;;20.23;13.02;;;;;;;;;;5031622;28;20025;-80
2022/11/24 10:37:06;;;;;;;21.23;13.98;;;;;;;;;;5032608;28;20045;-80
2022/11/24 10:39:35;;;;;;;20.48;14.15;;;;;;;;;;5049589;28;20021;-80
2022/11/24 10:42:30;;;;;;;19.10;12.63;;;;;;;;;;5049579;28;20044;-79
2022/11/24 10:45:11;;;;;;;18.08;13.13;;;;;;;;;;5033678;28;20099;-79
2022/11/24 10:47:37;;;;;;;23.08;13.77;;;;;;;;;;5048717;28;20041;-79
2022/11/24 10:50:04;;;;;;;19.50;13.13;;;;;;;;;;5050884;28;20028;-80
2022/11/24 10:52:31;;;;;;;23.70;13.82;;;;;;;;;;5053010;28;20041;-80
2022/11/24 10:54:57;;;;;;;18.98;12.73;;;;;;;;;;5036928;28;20047;-79
2022/11/24 10:57:22;;;;;;;;;;;;;;;;;;5053206;28;20025;-80
2022/11/24 10:59:48;;;;;;;18.98;11.82;;;;;;;;;;5054616;28;19962;-78
2022/11/24 11:02:27;;;;;;;22.30;14.23;;;;;;;;;;5033396;28;20029;-80
2022/11/24 11:04:52;;;;;;;21.05;13.23;;;;;;;;;;5053179;28;20527;-80
2022/11/24 11:07:19;;;;;;;19.55;13.05;;;;;;;;;;5052843;28;20029;-80
2022/11/24 11:09:44;;;;;;;18.50;12.18;;;;;;;;;;5036189;28;20480;-78
2022/11/24 11:12:11;;;;;;;16.45;12.07;;;;;;;;;;5052944;28;20049;-81
2022/11/24 11:14:36;;;;;;;19.75;12.50;;;;;;;;;;5052583;28;20052;-78
2022/11/24 11:17:02;;;;;;;18.35;13.35;;;;;;;;;;5052561;28;20021;-80
2022/11/24 11:19:31;;;;;;;23.98;16.20;;;;;;;;;;5052748;28;20045;-80
2022/11/24 11:22:03;;;;;;;18.45;12.15;;;;;;;;;;5052274;28;20033;-80
2022/11/24 11:24:29;;;;;;;18.80;12.73;;;;;;;;;;5052339;28;20040;-78
2022/11/24 11:26:59;;;;;;;18.02;11.82;;;;;;;;;;5035632;28;20396;-79
2022/11/24 11:29:25;;;;;;;17.15;11.45;;;;;;;;;;5035790;28;20404;-79
2022/11/24 11:31:50;;;;;;;;;;;;;;;;;;5053050;28;20029;-79
2022/11/24 11:34:17;;;;;;;13.95;9.35;;;;;;;;;;5035278;28;19923;-80
2022/11/24 11:36:44;;;;;;;15.98;10.80;;;;;;;;;;5030632;28;20187;-80
2022/11/24 11:39:38;;;;;;;14.20;10.40;;;;;;;;;;5033501;28;20091;-81
2022/11/24 11:42:17;;;;;;;16.52;10.50;;;;;;;;;;5056760;28;20534;-82
2022/11/24 11:44:51;;;;;;;16.08;10.50;;;;;;;;;;5049015;28;20037;-78
2022/11/24 11:47:26;;;;;;;14.57;10.00;;;;;;;;;;5051594;28;20040;-79
2022/11/24 11:49:52;;;;;;;16.38;11.10;;;;;;;;;;5053047;28;20377;-79
2022/11/24 11:52:20;;;;;;;15.60;11.23;;;;;;;;;;5034958;28;20036;-79
2022/11/24 11:55:04;;;;;;;12.57;10.10;;;;;;;;;;5048305;28;20131;-80
2022/11/24 11:57:34;;;;;;;14.85;10.20;;;;;;;;;;5050505;28;20033;-80
2022/11/24 12:00:15;;;;;;;13.32;9.48;;;;;;;;;;5051856;28;20036;-80
2022/11/24 12:02:43;;;;;;;15.68;10.07;;;;;;;;;;5049186;28;20495;-79
2022/11/24 12:05:29;;;;;;;14.52;10.48;;;;;;;;;;5052818;28;20109;-79
2022/11/24 12:08:08;;;;;;;12.20;9.13;;;;;;;;;;5035071;28;20403;-79
2022/11/24 12:10:36;;;;;;;15.95;10.77;;;;;;;;;;5051208;28;20495;-79
2022/11/24 12:13:22;;;;;;;15.38;10.35;;;;;;;;;;5052912;28;20056;-80
2022/11/24 12:15:51;;;;;;;13.48;9.27;;;;;;;;;;5031564;28;20455;-80
2022/11/24 12:18:20;;;;;;;15.43;10.73;;;;;;;;;;5029987;28;20044;-80
2022/11/24 12:20:57;;;;;;;16.98;10.65;;;;;;;;;;5053186;28;20550;-81
2022/11/24 12:23:44;;;;;;;14.52;9.27;;;;;;;;;;5052630;28;20041;-79
2022/11/24 12:26:12;;;;;;;14.43;10.10;;;;;;;;;;5051097;28;20039;-79
2022/11/24 12:28:45;;;;;;;13.48;9.50;;;;;;;;;;5052611;28;20035;-80
2022/11/24 12:31:30;;;;;;;13.60;8.85;;;;;;;;;;5051309;28;20029;-80
2022/11/24 12:33:55;;;;;;;14.15;9.82;;;;;;;;;;5043699;28;20204;-80
2022/11/24 12:36:31;;;;;;;15.60;10.00;;;;;;;;;;5052478;28;20025;-80
2022/11/24 12:39:29;;;;;;;13.70;9.43;;;;;;;;;;5034842;28;20071;-79
2022/11/24 12:42:13;;;;;;;14.35;10.18;;;;;;;;;;5027187;28;20094;-80
2022/11/24 12:44:43;;;;;;;14.68;10.07;;;;;;;;;;5051015;28;20051;-79
2022/11/24 12:47:21;;;;;;;15.95;10.27;;;;;;;;;;5051059;28;20055;-81
2022/11/24 12:49:50;;;;;;;14.73;9.85;;;;;;;;;;5050142;28;20484;-80
2022/11/24 12:52:20;;;;;;;14.55;9.40;;;;;;;;;;5051883;28;20032;-80
2022/11/24 12:54:46;;;;;;;13.55;9.75;;;;;;;;;;5040234;28;20040;-80
2022/11/24 12:57:19;;;;;;;14.70;9.73;;;;;;;;;;5051790;28;20033;-80
2022/11/24 12:59:47;;;;;;;16.13;10.20;;;;;;;;;;5041366;28;20037;-81
2022/11/24 13:02:16;;;;;;;13.15;9.30;;;;;;;;;;5051065;28;20025;-80
2022/11/24 13:04:47;;;;;;;16.35;10.68;;;;;;;;;;5041804;28;20053;-80
2022/11/24 13:07:26;;;;;;;17.23;10.63;;;;;;;;;;5050430;28;20041;-80
2022/11/24 13:10:10;;;;;;;15.30;10.02;;;;;;;;;;5050981;28;20037;-80
2022/11/24 13:12:51;;;;;;;13.02;10.02;;;;;;;;;;5039777;28;20025;-79
2022/11/24 13:15:16;;;;;;;15.80;10.55;;;;;;;;;;5051369;28;20041;-80
2022/11/24 13:17:42;;;;;;;16.55;11.40;;;;;;;;;;5051471;28;20036;-80
2022/11/24 13:20:19;;;;;;;15.80;11.00;;;;;;;;;;5050480;28;20040;-80
2022/11/24 13:22:54;;;;;;;15.73;10.55;;;;;;;;;;5050835;28;20032;-80
2022/11/24 13:25:20;;;;;;;13.60;9.50;;;;;;;;;;5032623;28;20412;-82
2022/11/24 13:27:47;;;;;;;14.18;10.05;;;;;;;;;;5057678;28;20037;-80
2022/11/24 13:30:31;;;;;;;14.35;10.48;;;;;;;;;;5047824;28;20510;-81
2022/11/24 13:33:02;;;;;;;13.85;9.75;;;;;;;;;;5033023;28;20037;-81
2022/11/24 13:35:28;;;;;;;13.80;9.77;;;;;;;;;;5051824;28;20025;-80
2022/11/24 13:37:53;;;;;;;14.98;10.68;;;;;;;;;;5034196;28;20111;-81
2022/11/24 13:40:21;;;;;;;14.77;10.43;;;;;;;;;;5051802;28;20086;-81
2022/11/24 13:43:04;;;;;;;18.20;11.70;;;;;;;;;;5043250;28;20383;-80
2022/11/24 13:45:40;;;;;;;17.98;11.40;;;;;;;;;;5049871;28;20037;-82
2022/11/24 13:48:17;;;;;;;17.05;10.60;;;;;;;;;;5051396;28;20033;-80
2022/11/24 13:50:49;;;;;;;14.23;9.85;;;;;;;;;;5051500;28;20033;-80
2022/11/24 13:53:21;;;;;;;13.18;9.88;;;;;;;;;;5066769;28;20041;-82
2022/11/24 13:55:59;;;;;;;15.30;9.82;;;;;;;;;;5050002;28;20051;-80
2022/11/24 13:58:49;;;;;;;15.07;9.27;;;;;;;;;;5049809;28;20107;-80
2022/11/24 14:01:21;;;;;;;13.57;9.30;;;;;;;;;;5044624;28;20102;-80
2022/11/24 14:04:05;;;;;;;12.75;8.23;;;;;;;;;;5049306;28;20057;-80
2022/11/24 14:06:41;;;;;;;14.77;9.52;;;;;;;;;;5066543;28;20115;-80
2022/11/24 14:09:26;;;;;;;14.40;9.73;;;;;;;;;;5050683;28;20464;-80
2022/11/24 14:12:01;;;;;;;14.30;8.80;;;;;;;;;;5050676;28;20091;-81
2022/11/24 14:14:27;;;;;;;13.15;8.93;;;;;;;;;;5051526;28;20061;-80
2022/11/24 14:17:05;;;;;;;15.10;9.45;;;;;;;;;;5051138;28;20060;-80
2022/11/24 14:19:31;;;;;;;13.27;8.82;;;;;;;;;;5035975;28;20104;-79
2022/11/24 14:21:56;;;;;;;12.75;8.85;;;;;;;;;;5048612;28;20055;-80
2022/11/24 14:24:22;;;;;;;12.13;8.80;;;;;;;;;;5049770;28;20111;-80
2022/11/24 14:26:47;;;;;;;13.25;9.20;;;;;;;;;;5037255;28;20029;-80
2022/11/24 14:29:13;;;;;;;12.85;9.23;;;;;;;;;;5054118;28;20188;-79
2022/11/24 14:31:38;;;;;;;15.57;8.95;;;;;;;;;;5055008;28;20368;-79
2022/11/24 14:34:10;;;;;;;16.20;8.75;;;;;;;;;;5053602;28;20120;-81
2022/11/24 14:36:35;;;;;;;13.50;8.43;;;;;;;;;;5054368;28;20033;-80
2022/11/24 14:39:01;;;;;;;13.50;8.75;;;;;;;;;;5053522;28;20029;-81
2022/11/24 14:41:27;;;;;;;13.95;9.18;;;;;;;;;;5053381;28;20517;-79